sensor_id;sensor_type;location;lat;lon;timestamp;pressure;altitude;pressure_sealevel;temperature;humidity
41947;BME280;27638;42.184;24.848;2023-03-26T00:00:53;99072.28;;;14.87;86.02
41947;BME280;27638;42.184;24.848;2023-03-26T00:03:20;99089.50;;;14.78;85.84
41947;BME280;27638;42.184;24.848;2023-03-26T00:05:46;99094.63;;;14.73;84.89
41947;BME280;27638;42.184;24.848;2023-03-26T00:08:13;99087.47;;;14.73;84.34
41947;BME280;27638;42.184;24.848;2023-03-26T00:10:40;99088.69;;;14.77;84.76
41947;BME280;27638;42.184;24.848;2023-03-26T00:13:06;99093.19;;;14.83;84.26
41947;BME280;27638;42.184;24.848;2023-03-26T00:15:33;99109.00;;;14.85;84.39
41947;BME280;27638;42.184;24.848;2023-03-26T00:17:59;99113.28;;;14.79;84.69
41947;BME280;27638;42.184;24.848;2023-03-26T00:20:29;99121.06;;;14.67;85.09
41947;BME280;27638;42.184;24.848;2023-03-26T00:22:54;99106.09;;;14.60;86.23
41947;BME280;27638;42.184;24.848;2023-03-26T00:25:23;99104.22;;;14.47;86.42
41947;BME280;27638;42.184;24.848;2023-03-26T00:27:49;99093.28;;;14.29;88.31
41947;BME280;27638;42.184;24.848;2023-03-26T00:30:14;99099.63;;;14.21;88.75
41947;BME280;27638;42.184;24.848;2023-03-26T00:32:41;99100.81;;;14.12;89.47
41947;BME280;27638;42.184;24.848;2023-03-26T00:35:06;99100.81;;;14.05;89.75
41947;BME280;27638;42.184;24.848;2023-03-26T00:37:32;99102.22;;;13.95;90.54
41947;BME280;27638;42.184;24.848;2023-03-26T00:39:58;99097.31;;;13.98;90.88
41947;BME280;27638;42.184;24.848;2023-03-26T00:42:27;99094.84;;;13.97;90.81
41947;BME280;27638;42.184;24.848;2023-03-26T00:44:53;99093.19;;;13.89;91.00
41947;BME280;27638;42.184;24.848;2023-03-26T00:47:26;99094.19;;;13.88;90.80
41947;BME280;27638;42.184;24.848;2023-03-26T00:49:52;99099.91;;;13.85;91.54
41947;BME280;27638;42.184;24.848;2023-03-26T00:52:18;99098.88;;;13.80;91.86
41947;BME280;27638;42.184;24.848;2023-03-26T00:54:44;99099.50;;;13.82;92.64
41947;BME280;27638;42.184;24.848;2023-03-26T00:57:11;99102.97;;;13.82;92.40
41947;BME280;27638;42.184;24.848;2023-03-26T00:59:38;99108.88;;;13.78;93.43
41947;BME280;27638;42.184;24.848;2023-03-26T01:02:03;99112.59;;;13.83;93.36
41947;BME280;27638;42.184;24.848;2023-03-26T01:04:31;99118.47;;;13.72;94.65
41947;BME280;27638;42.184;24.848;2023-03-26T01:07:08;99114.53;;;13.61;94.79
41947;BME280;27638;42.184;24.848;2023-03-26T01:09:38;99106.22;;;13.78;93.43
41947;BME280;27638;42.184;24.848;2023-03-26T01:12:09;99110.13;;;13.82;92.80
41947;BME280;27638;42.184;24.848;2023-03-26T01:14:37;99098.25;;;13.78;92.14
41947;BME280;27638;42.184;24.848;2023-03-26T01:17:05;99109.75;;;13.85;91.40
41947;BME280;27638;42.184;24.848;2023-03-26T01:22:29;99145.53;;;13.48;93.61
41947;BME280;27638;42.184;24.848;2023-03-26T01:24:55;99140.66;;;13.23;95.34
41947;BME280;27638;42.184;24.848;2023-03-26T01:38:28;99143.84;;;13.40;97.81
41947;BME280;27638;42.184;24.848;2023-03-26T01:44:33;99144.00;;;13.60;95.57
41947;BME280;27638;42.184;24.848;2023-03-26T01:47:00;99152.88;;;13.73;94.50
41947;BME280;27638;42.184;24.848;2023-03-26T01:49:27;99153.09;;;13.79;93.99
41947;BME280;27638;42.184;24.848;2023-03-26T01:51:55;99143.94;;;13.88;93.19
41947;BME280;27638;42.184;24.848;2023-03-26T01:54:24;99146.59;;;13.88;91.92
41947;BME280;27638;42.184;24.848;2023-03-26T02:07:46;99145.97;;;13.86;90.36
41947;BME280;27638;42.184;24.848;2023-03-26T02:10:45;99149.47;;;13.86;89.21
41947;BME280;27638;42.184;24.848;2023-03-26T02:13:12;99143.91;;;13.81;88.18
41947;BME280;27638;42.184;24.848;2023-03-26T02:15:56;99140.81;;;13.78;87.96
41947;BME280;27638;42.184;24.848;2023-03-26T02:18:23;99147.00;;;13.85;87.09
41947;BME280;27638;42.184;24.848;2023-03-26T02:20:51;99148.25;;;13.89;86.08
41947;BME280;27638;42.184;24.848;2023-03-26T02:23:18;99150.50;;;13.92;84.94
41947;BME280;27638;42.184;24.848;2023-03-26T02:25:45;99147.22;;;13.90;84.21
41947;BME280;27638;42.184;24.848;2023-03-26T02:28:10;99152.34;;;13.91;82.88
41947;BME280;27638;42.184;24.848;2023-03-26T02:30:36;99157.06;;;13.96;82.46
41947;BME280;27638;42.184;24.848;2023-03-26T02:33:02;99160.97;;;14.00;81.94
41947;BME280;27638;42.184;24.848;2023-03-26T02:35:27;99163.44;;;14.01;82.06
41947;BME280;27638;42.184;24.848;2023-03-26T02:37:53;99169.19;;;14.05;82.10
41947;BME280;27638;42.184;24.848;2023-03-26T02:40:18;99162.91;;;14.19;81.03
41947;BME280;27638;42.184;24.848;2023-03-26T02:42:46;99168.25;;;14.26;80.30
41947;BME280;27638;42.184;24.848;2023-03-26T02:45:12;99169.31;;;14.31;79.53
41947;BME280;27638;42.184;24.848;2023-03-26T02:47:37;99173.38;;;14.27;78.18
41947;BME280;27638;42.184;24.848;2023-03-26T02:50:03;99169.69;;;14.28;77.26
41947;BME280;27638;42.184;24.848;2023-03-26T02:52:29;99170.72;;;14.27;76.48
41947;BME280;27638;42.184;24.848;2023-03-26T02:54:54;99166.00;;;14.23;75.84
41947;BME280;27638;42.184;24.848;2023-03-26T02:57:20;99175.63;;;14.24;75.53
41947;BME280;27638;42.184;24.848;2023-03-26T02:59:46;99176.63;;;14.16;74.53
41947;BME280;27638;42.184;24.848;2023-03-26T03:02:14;99180.31;;;14.15;73.64
41947;BME280;27638;42.184;24.848;2023-03-26T03:04:40;99181.09;;;14.09;73.16
41947;BME280;27638;42.184;24.848;2023-03-26T03:07:06;99183.94;;;14.07;72.44
41947;BME280;27638;42.184;24.848;2023-03-26T03:09:32;99183.53;;;14.04;72.07
41947;BME280;27638;42.184;24.848;2023-03-26T03:11:58;99182.69;;;13.97;71.69
41947;BME280;27638;42.184;24.848;2023-03-26T03:14:24;99192.47;;;13.90;70.79
41947;BME280;27638;42.184;24.848;2023-03-26T03:16:49;99198.56;;;13.84;70.53
41947;BME280;27638;42.184;24.848;2023-03-26T03:19:15;99199.41;;;13.84;71.22
41947;BME280;27638;42.184;24.848;2023-03-26T03:21:41;99204.13;;;13.89;71.35
41947;BME280;27638;42.184;24.848;2023-03-26T03:24:07;99205.78;;;13.90;71.47
41947;BME280;27638;42.184;24.848;2023-03-26T03:26:33;99206.00;;;13.95;71.56
41947;BME280;27638;42.184;24.848;2023-03-26T03:28:58;99212.78;;;13.97;71.08
41947;BME280;27638;42.184;24.848;2023-03-26T03:31:24;99213.75;;;13.90;71.04
41947;BME280;27638;42.184;24.848;2023-03-26T03:33:51;99211.69;;;13.85;71.57
41947;BME280;27638;42.184;24.848;2023-03-26T03:36:18;99213.28;;;13.80;71.81
41947;BME280;27638;42.184;24.848;2023-03-26T03:38:46;99226.34;;;13.74;72.00
41947;BME280;27638;42.184;24.848;2023-03-26T03:41:12;99220.81;;;13.69;72.21
41947;BME280;27638;42.184;24.848;2023-03-26T03:43:38;99226.06;;;13.63;72.36
41947;BME280;27638;42.184;24.848;2023-03-26T03:46:03;99223.38;;;13.56;72.00
41947;BME280;27638;42.184;24.848;2023-03-26T03:48:29;99226.78;;;13.50;71.93
41947;BME280;27638;42.184;24.848;2023-03-26T03:50:55;99227.41;;;13.52;71.72
41947;BME280;27638;42.184;24.848;2023-03-26T03:53:21;99239.53;;;13.55;71.45
41947;BME280;27638;42.184;24.848;2023-03-26T03:55:55;99238.50;;;13.56;70.85
41947;BME280;27638;42.184;24.848;2023-03-26T03:58:22;99243.50;;;13.65;70.41
41947;BME280;27638;42.184;24.848;2023-03-26T04:00:52;99244.88;;;13.61;70.28
41947;BME280;27638;42.184;24.848;2023-03-26T04:03:18;99245.28;;;13.58;69.90
41947;BME280;27638;42.184;24.848;2023-03-26T04:05:45;99264.28;;;13.55;69.55
41947;BME280;27638;42.184;24.848;2023-03-26T04:08:16;99263.66;;;13.53;69.38
41947;BME280;27638;42.184;24.848;2023-03-26T04:10:43;99257.25;;;13.48;69.70
41947;BME280;27638;42.184;24.848;2023-03-26T04:13:10;99259.47;;;13.44;69.81
41947;BME280;27638;42.184;24.848;2023-03-26T04:15:36;99255.09;;;13.36;70.08
41947;BME280;27638;42.184;24.848;2023-03-26T04:18:02;99255.28;;;13.35;70.21
41947;BME280;27638;42.184;24.848;2023-03-26T04:20:27;99258.78;;;13.35;69.88
41947;BME280;27638;42.184;24.848;2023-03-26T04:22:53;99261.63;;;13.34;69.49
41947;BME280;27638;42.184;24.848;2023-03-26T04:25:18;99261.63;;;13.34;69.32
41947;BME280;27638;42.184;24.848;2023-03-26T04:27:45;99264.66;;;13.31;69.01
41947;BME280;27638;42.184;24.848;2023-03-26T04:30:17;99269.66;;;13.40;68.89
41947;BME280;27638;42.184;24.848;2023-03-26T04:32:45;99280.09;;;13.42;68.48
41947;BME280;27638;42.184;24.848;2023-03-26T04:35:12;99277.25;;;13.43;68.05
41947;BME280;27638;42.184;24.848;2023-03-26T04:37:41;99277.13;;;13.09;69.37
41947;BME280;27638;42.184;24.848;2023-03-26T04:40:20;99281.41;;;13.10;69.32
41947;BME280;27638;42.184;24.848;2023-03-26T04:42:46;99278.81;;;12.95;70.84
41947;BME280;27638;42.184;24.848;2023-03-26T04:45:13;99281.41;;;13.10;69.74
41947;BME280;27638;42.184;24.848;2023-03-26T04:47:39;99291.03;;;13.11;69.81
41947;BME280;27638;42.184;24.848;2023-03-26T04:50:09;99300.25;;;13.30;69.33
41947;BME280;27638;42.184;24.848;2023-03-26T04:52:35;99313.03;;;13.20;69.87
41947;BME280;27638;42.184;24.848;2023-03-26T04:55:01;99317.78;;;13.24;69.32
41947;BME280;27638;42.184;24.848;2023-03-26T04:57:38;99316.88;;;13.17;69.71
41947;BME280;27638;42.184;24.848;2023-03-26T05:00:12;99319.06;;;13.14;69.35
41947;BME280;27638;42.184;24.848;2023-03-26T05:02:42;99316.59;;;13.27;68.38
41947;BME280;27638;42.184;24.848;2023-03-26T05:05:08;99314.81;;;13.34;67.65
41947;BME280;27638;42.184;24.848;2023-03-26T05:07:35;99313.91;;;13.48;67.42
41947;BME280;27638;42.184;24.848;2023-03-26T05:10:01;99314.75;;;13.49;67.32
41947;BME280;27638;42.184;24.848;2023-03-26T05:12:30;99333.13;;;13.65;66.73
41947;BME280;27638;42.184;24.848;2023-03-26T05:14:55;99350.41;;;13.76;66.78
41947;BME280;27638;42.184;24.848;2023-03-26T05:17:22;99341.75;;;13.95;67.23
41947;BME280;27638;42.184;24.848;2023-03-26T05:19:49;99346.75;;;14.04;66.12
41947;BME280;27638;42.184;24.848;2023-03-26T05:22:16;99343.84;;;13.99;66.60
41947;BME280;27638;42.184;24.848;2023-03-26T05:24:42;99338.13;;;14.02;66.67
41947;BME280;27638;42.184;24.848;2023-03-26T05:27:07;99342.66;;;14.09;66.65
41947;BME280;27638;42.184;24.848;2023-03-26T05:29:33;99342.03;;;14.06;67.17
41947;BME280;27638;42.184;24.848;2023-03-26T05:31:58;99345.34;;;14.09;66.60
41947;BME280;27638;42.184;24.848;2023-03-26T05:34:24;99342.94;;;14.20;66.07
41947;BME280;27638;42.184;24.848;2023-03-26T05:36:51;99349.56;;;14.31;65.71
41947;BME280;27638;42.184;24.848;2023-03-26T05:39:17;99354.03;;;14.52;65.61
41947;BME280;27638;42.184;24.848;2023-03-26T05:41:42;99366.66;;;14.71;65.00
41947;BME280;27638;42.184;24.848;2023-03-26T05:44:08;99369.81;;;14.88;64.38
41947;BME280;27638;42.184;24.848;2023-03-26T05:46:33;99367.19;;;15.01;63.80
41947;BME280;27638;42.184;24.848;2023-03-26T05:48:59;99372.59;;;15.21;63.82
41947;BME280;27638;42.184;24.848;2023-03-26T05:51:24;99373.22;;;15.23;62.65
41947;BME280;27638;42.184;24.848;2023-03-26T05:53:50;99370.78;;;15.34;62.69
41947;BME280;27638;42.184;24.848;2023-03-26T05:56:15;99384.13;;;15.34;62.61
41947;BME280;27638;42.184;24.848;2023-03-26T05:58:41;99383.28;;;15.27;62.52
41947;BME280;27638;42.184;24.848;2023-03-26T06:01:10;99386.81;;;15.54;62.33
41947;BME280;27638;42.184;24.848;2023-03-26T06:03:40;99400.88;;;15.70;61.61
41947;BME280;27638;42.184;24.848;2023-03-26T06:06:14;99397.59;;;15.81;60.82
41947;BME280;27638;42.184;24.848;2023-03-26T06:08:49;99399.66;;;15.99;60.76
41947;BME280;27638;42.184;24.848;2023-03-26T06:11:17;99399.03;;;16.03;59.81
41947;BME280;27638;42.184;24.848;2023-03-26T06:13:43;99389.19;;;16.17;58.65
41947;BME280;27638;42.184;24.848;2023-03-26T06:16:09;99386.69;;;16.35;57.81
41947;BME280;27638;42.184;24.848;2023-03-26T06:18:35;99392.41;;;16.58;56.86
41947;BME280;27638;42.184;24.848;2023-03-26T06:21:02;99393.00;;;16.60;55.27
41947;BME280;27638;42.184;24.848;2023-03-26T06:23:28;99398.19;;;16.42;55.13
41947;BME280;27638;42.184;24.848;2023-03-26T06:25:53;99394.69;;;16.68;55.04
41947;BME280;27638;42.184;24.848;2023-03-26T06:28:18;99389.34;;;16.48;53.53
41947;BME280;27638;42.184;24.848;2023-03-26T06:30:44;99387.25;;;16.57;54.94
41947;BME280;27638;42.184;24.848;2023-03-26T06:33:10;99394.06;;;16.73;55.44
41947;BME280;27638;42.184;24.848;2023-03-26T06:35:35;99394.56;;;17.08;54.42
41947;BME280;27638;42.184;24.848;2023-03-26T06:38:01;99385.44;;;17.22;53.47
41947;BME280;27638;42.184;24.848;2023-03-26T06:40:27;99382.25;;;17.38;52.23
41947;BME280;27638;42.184;24.848;2023-03-26T06:42:53;99389.47;;;17.38;51.91
41947;BME280;27638;42.184;24.848;2023-03-26T06:45:20;99390.72;;;17.35;51.27
41947;BME280;27638;42.184;24.848;2023-03-26T06:47:46;99385.19;;;17.30;50.98
41947;BME280;27638;42.184;24.848;2023-03-26T06:50:11;99382.94;;;17.27;50.89
41947;BME280;27638;42.184;24.848;2023-03-26T06:52:37;99396.06;;;17.35;52.15
41947;BME280;27638;42.184;24.848;2023-03-26T06:55:03;99388.78;;;17.49;50.20
41947;BME280;27638;42.184;24.848;2023-03-26T06:57:31;99391.97;;;17.64;51.17
41947;BME280;27638;42.184;24.848;2023-03-26T06:59:57;99391.41;;;17.69;47.92
41947;BME280;27638;42.184;24.848;2023-03-26T07:02:22;99388.28;;;17.65;47.71
41947;BME280;27638;42.184;24.848;2023-03-26T07:04:47;99386.28;;;17.54;46.44
41947;BME280;27638;42.184;24.848;2023-03-26T07:07:13;99396.78;;;17.55;46.51
41947;BME280;27638;42.184;24.848;2023-03-26T07:09:38;99387.44;;;17.65;47.32
41947;BME280;27638;42.184;24.848;2023-03-26T07:12:04;99393.63;;;17.72;46.48
41947;BME280;27638;42.184;24.848;2023-03-26T07:14:30;99382.88;;;17.78;46.90
41947;BME280;27638;42.184;24.848;2023-03-26T07:16:57;99389.56;;;17.94;47.23
41947;BME280;27638;42.184;24.848;2023-03-26T07:19:23;99388.78;;;18.12;46.92
41947;BME280;27638;42.184;24.848;2023-03-26T07:21:48;99387.63;;;18.26;45.10
41947;BME280;27638;42.184;24.848;2023-03-26T07:24:15;99386.38;;;18.29;44.54
41947;BME280;27638;42.184;24.848;2023-03-26T07:29:40;99379.66;;;18.19;42.40
41947;BME280;27638;42.184;24.848;2023-03-26T07:32:29;99371.06;;;18.11;41.60
41947;BME280;27638;42.184;24.848;2023-03-26T07:35:12;99375.28;;;18.25;41.55
41947;BME280;27638;42.184;24.848;2023-03-26T07:38:02;99370.97;;;18.42;41.07
41947;BME280;27638;42.184;24.848;2023-03-26T07:45:45;99360.53;;;18.34;39.77
41947;BME280;27638;42.184;24.848;2023-03-26T07:48:21;99355.88;;;18.48;40.25
41947;BME280;27638;42.184;24.848;2023-03-26T07:50:54;99361.88;;;18.68;40.57
41947;BME280;27638;42.184;24.848;2023-03-26T07:53:21;99353.84;;;18.87;40.78
41947;BME280;27638;42.184;24.848;2023-03-26T08:04:24;99370.09;;;19.22;38.07
41947;BME280;27638;42.184;24.848;2023-03-26T08:07:17;99375.41;;;19.10;36.41
41947;BME280;27638;42.184;24.848;2023-03-26T08:17:39;99375.09;;;19.18;37.47
41947;BME280;27638;42.184;24.848;2023-03-26T08:22:41;99371.06;;;19.57;37.53
41947;BME280;27638;42.184;24.848;2023-03-26T08:25:17;99371.38;;;19.49;38.18
41947;BME280;27638;42.184;24.848;2023-03-26T08:28:02;99369.47;;;19.68;38.97
41947;BME280;27638;42.184;24.848;2023-03-26T08:30:29;99370.75;;;19.65;38.26
41947;BME280;27638;42.184;24.848;2023-03-26T08:32:58;99377.72;;;19.55;36.43
41947;BME280;27638;42.184;24.848;2023-03-26T08:35:25;99381.47;;;19.54;36.89
41947;BME280;27638;42.184;24.848;2023-03-26T08:37:51;99370.34;;;19.80;38.33
41947;BME280;27638;42.184;24.848;2023-03-26T08:41:29;99363.56;;;19.89;37.47
41947;BME280;27638;42.184;24.848;2023-03-26T09:21:12;99330.06;;;20.27;34.84
41947;BME280;27638;42.184;24.848;2023-03-26T09:26:58;99327.00;;;20.58;33.38
41947;BME280;27638;42.184;24.848;2023-03-26T09:32:35;99327.91;;;20.64;31.87
41947;BME280;27638;42.184;24.848;2023-03-26T09:35:17;99323.00;;;20.61;31.30
41947;BME280;27638;42.184;24.848;2023-03-26T09:37:58;99320.91;;;20.63;33.01
41947;BME280;27638;42.184;24.848;2023-03-26T09:40:36;99312.84;;;20.63;31.08
41947;BME280;27638;42.184;24.848;2023-03-26T09:57:02;99299.53;;;20.56;30.92
41947;BME280;27638;42.184;24.848;2023-03-26T10:05:10;99296.25;;;20.54;30.63
41947;BME280;27638;42.184;24.848;2023-03-26T10:21:55;99272.66;;;20.85;30.56
41947;BME280;27638;42.184;24.848;2023-03-26T10:24:32;99268.69;;;20.87;29.78
41947;BME280;27638;42.184;24.848;2023-03-26T10:38:00;99245.53;;;20.86;29.47
41947;BME280;27638;42.184;24.848;2023-03-26T10:56:34;99223.28;;;21.08;29.02
41947;BME280;27638;42.184;24.848;2023-03-26T10:59:11;99218.00;;;21.13;28.10
41947;BME280;27638;42.184;24.848;2023-03-26T11:04:47;99206.69;;;21.27;27.29
41947;BME280;27638;42.184;24.848;2023-03-26T11:07:43;99213.38;;;21.25;26.63
41947;BME280;27638;42.184;24.848;2023-03-26T11:15:23;99194.94;;;21.33;27.47
41947;BME280;27638;42.184;24.848;2023-03-26T11:25:50;99182.50;;;21.16;26.16
41947;BME280;27638;42.184;24.848;2023-03-26T11:33:47;99180.63;;;21.16;26.53
41947;BME280;27638;42.184;24.848;2023-03-26T11:36:18;99171.00;;;21.03;25.69
41947;BME280;27638;42.184;24.848;2023-03-26T11:38:48;99177.03;;;21.11;27.09
41947;BME280;27638;42.184;24.848;2023-03-26T11:41:21;99170.34;;;21.13;25.33
41947;BME280;27638;42.184;24.848;2023-03-26T11:43:51;99166.59;;;21.14;26.41
41947;BME280;27638;42.184;24.848;2023-03-26T11:46:21;99164.66;;;21.10;25.99
41947;BME280;27638;42.184;24.848;2023-03-26T11:48:53;99159.50;;;21.08;27.29
41947;BME280;27638;42.184;24.848;2023-03-26T11:51:54;99159.84;;;21.12;26.45
41947;BME280;27638;42.184;24.848;2023-03-26T11:54:19;99166.59;;;21.14;25.79
41947;BME280;27638;42.184;24.848;2023-03-26T11:59:32;99157.31;;;21.05;26.38
41947;BME280;27638;42.184;24.848;2023-03-26T12:04:36;99151.84;;;21.00;26.27
41947;BME280;27638;42.184;24.848;2023-03-26T12:07:22;99150.03;;;21.06;25.94
41947;BME280;27638;42.184;24.848;2023-03-26T12:09:59;99157.88;;;21.07;25.03
41947;BME280;27638;42.184;24.848;2023-03-26T12:12:31;99152.00;;;21.10;25.31
41947;BME280;27638;42.184;24.848;2023-03-26T12:14:58;99158.59;;;21.02;25.63
41947;BME280;27638;42.184;24.848;2023-03-26T12:17:35;99156.72;;;21.03;25.47
41947;BME280;27638;42.184;24.848;2023-03-26T12:20:01;99145.88;;;20.81;24.13
41947;BME280;27638;42.184;24.848;2023-03-26T12:22:47;99156.97;;;20.85;26.50
41947;BME280;27638;42.184;24.848;2023-03-26T12:28:29;99138.50;;;20.77;25.12
41947;BME280;27638;42.184;24.848;2023-03-26T12:30:31;99129.94;;;20.80;26.08
41947;BME280;27638;42.184;24.848;2023-03-26T12:33:03;99139.84;;;20.91;26.91
41947;BME280;27638;42.184;24.848;2023-03-26T12:35:32;99126.44;;;20.79;25.77
41947;BME280;27638;42.184;24.848;2023-03-26T12:38:31;99134.47;;;20.91;26.12
41947;BME280;27638;42.184;24.848;2023-03-26T12:41:15;99127.38;;;21.01;26.01
41947;BME280;27638;42.184;24.848;2023-03-26T12:46:33;99118.22;;;21.02;25.45
41947;BME280;27638;42.184;24.848;2023-03-26T12:49:02;99118.00;;;21.04;25.69
41947;BME280;27638;42.184;24.848;2023-03-26T13:13:43;99088.31;;;20.82;24.91
41947;BME280;27638;42.184;24.848;2023-03-26T13:24:22;99074.34;;;20.68;24.78
41947;BME280;27638;42.184;24.848;2023-03-26T13:32:31;99063.50;;;20.80;24.34
41947;BME280;27638;42.184;24.848;2023-03-26T13:38:01;99056.63;;;20.72;23.43
41947;BME280;27638;42.184;24.848;2023-03-26T13:53:52;99060.25;;;20.95;23.85
41947;BME280;27638;42.184;24.848;2023-03-26T13:56:26;99060.72;;;20.75;23.70
41947;BME280;27638;42.184;24.848;2023-03-26T14:01:42;99061.84;;;20.79;24.65
41947;BME280;27638;42.184;24.848;2023-03-26T14:04:22;99068.41;;;20.83;25.45
41947;BME280;27638;42.184;24.848;2023-03-26T14:07:02;99064.31;;;20.64;23.40
41947;BME280;27638;42.184;24.848;2023-03-26T14:09:47;99063.97;;;20.60;24.10
41947;BME280;27638;42.184;24.848;2023-03-26T14:14:54;99062.75;;;20.68;25.25
41947;BME280;27638;42.184;24.848;2023-03-26T14:17:37;99063.31;;;20.70;23.87
41947;BME280;27638;42.184;24.848;2023-03-26T14:31:32;99054.28;;;20.59;23.91
41947;BME280;27638;42.184;24.848;2023-03-26T14:45:02;99048.50;;;20.84;22.73
41947;BME280;27638;42.184;24.848;2023-03-26T14:53:24;99048.28;;;20.86;23.83
41947;BME280;27638;42.184;24.848;2023-03-26T15:35:43;99017.50;;;20.65;23.87
41947;BME280;27638;42.184;24.848;2023-03-26T15:38:40;99019.56;;;20.58;23.68
41947;BME280;27638;42.184;24.848;2023-03-26T15:41:47;99017.84;;;20.52;23.68
41947;BME280;27638;42.184;24.848;2023-03-26T15:49:13;99030.41;;;20.34;25.06
41947;BME280;27638;42.184;24.848;2023-03-26T16:00:25;99030.88;;;19.86;25.96
41947;BME280;27638;42.184;24.848;2023-03-26T16:11:01;99030.84;;;19.98;24.72
41947;BME280;27638;42.184;24.848;2023-03-26T16:18:37;99033.97;;;19.78;25.34
41947;BME280;27638;42.184;24.848;2023-03-26T16:29:19;99029.94;;;19.29;25.98
41947;BME280;27638;42.184;24.848;2023-03-26T16:32:10;99043.81;;;19.26;26.09
41947;BME280;27638;42.184;24.848;2023-03-26T16:34:59;99044.53;;;19.21;25.52
41947;BME280;27638;42.184;24.848;2023-03-26T16:48:28;99053.84;;;19.30;26.33
41947;BME280;27638;42.184;24.848;2023-03-26T16:53:44;99063.97;;;19.52;26.60
41947;BME280;27638;42.184;24.848;2023-03-26T16:56:29;99062.13;;;19.52;26.73
41947;BME280;27638;42.184;24.848;2023-03-26T16:59:16;99065.72;;;19.46;27.81
41947;BME280;27638;42.184;24.848;2023-03-26T17:01:57;99074.97;;;19.38;27.73
41947;BME280;27638;42.184;24.848;2023-03-26T17:04:29;99075.19;;;19.37;27.71
41947;BME280;27638;42.184;24.848;2023-03-26T17:07:29;99082.91;;;19.33;28.21
41947;BME280;27638;42.184;24.848;2023-03-26T17:10:09;99085.00;;;19.31;28.72
41947;BME280;27638;42.184;24.848;2023-03-26T17:12:51;99087.94;;;19.30;27.95
41947;BME280;27638;42.184;24.848;2023-03-26T17:20:56;99115.69;;;19.35;28.12
41947;BME280;27638;42.184;24.848;2023-03-26T17:31:44;99119.66;;;18.98;29.75
41947;BME280;27638;42.184;24.848;2023-03-26T17:42:31;99139.59;;;18.90;30.01
41947;BME280;27638;42.184;24.848;2023-03-26T17:45:08;99156.72;;;18.89;31.02
41947;BME280;27638;42.184;24.848;2023-03-26T17:47:44;99148.50;;;18.72;30.92
41947;BME280;27638;42.184;24.848;2023-03-26T17:50:13;99150.69;;;18.64;30.59
41947;BME280;27638;42.184;24.848;2023-03-26T17:55:17;99150.16;;;18.55;30.56
41947;BME280;27638;42.184;24.848;2023-03-26T17:57:47;99157.47;;;18.48;30.51
41947;BME280;27638;42.184;24.848;2023-03-26T18:00:22;99158.03;;;18.38;30.96
41947;BME280;27638;42.184;24.848;2023-03-26T18:03:09;99161.38;;;18.34;31.15
41947;BME280;27638;42.184;24.848;2023-03-26T18:05:38;99174.41;;;18.30;31.71
41947;BME280;27638;42.184;24.848;2023-03-26T18:08:35;99174.56;;;18.35;31.45
41947;BME280;27638;42.184;24.848;2023-03-26T18:14:08;99173.00;;;18.28;31.61
41947;BME280;27638;42.184;24.848;2023-03-26T18:16:41;99176.41;;;18.35;32.05
41947;BME280;27638;42.184;24.848;2023-03-26T18:19:12;99176.66;;;18.33;31.68
41947;BME280;27638;42.184;24.848;2023-03-26T18:21:44;99173.59;;;18.30;32.84
41947;BME280;27638;42.184;24.848;2023-03-26T18:24:18;99175.28;;;17.94;33.02
41947;BME280;27638;42.184;24.848;2023-03-26T18:29:57;99179.47;;;17.40;33.48
41947;BME280;27638;42.184;24.848;2023-03-26T18:32:29;99180.78;;;17.31;32.41
41947;BME280;27638;42.184;24.848;2023-03-26T18:34:59;99183.34;;;17.19;32.92
41947;BME280;27638;42.184;24.848;2023-03-26T18:37:32;99182.25;;;17.02;33.42
41947;BME280;27638;42.184;24.848;2023-03-26T18:42:36;99181.47;;;16.95;32.97
41947;BME280;27638;42.184;24.848;2023-03-26T18:45:06;99168.94;;;16.96;34.49
41947;BME280;27638;42.184;24.848;2023-03-26T18:47:33;99183.88;;;17.03;35.30
41947;BME280;27638;42.184;24.848;2023-03-26T18:50:01;99181.81;;;17.05;36.31
41947;BME280;27638;42.184;24.848;2023-03-26T18:52:28;99184.94;;;17.02;36.46
41947;BME280;27638;42.184;24.848;2023-03-26T18:54:56;99180.41;;;17.03;36.94
41947;BME280;27638;42.184;24.848;2023-03-26T18:57:25;99183.28;;;17.01;36.68
41947;BME280;27638;42.184;24.848;2023-03-26T18:59:52;99175.63;;;16.80;37.11
41947;BME280;27638;42.184;24.848;2023-03-26T19:02:19;99184.63;;;16.85;35.11
41947;BME280;27638;42.184;24.848;2023-03-26T19:04:47;99167.56;;;16.86;36.53
41947;BME280;27638;42.184;24.848;2023-03-26T19:07:18;99184.19;;;16.88;35.79
41947;BME280;27638;42.184;24.848;2023-03-26T19:09:46;99181.53;;;16.88;34.53
41947;BME280;27638;42.184;24.848;2023-03-26T19:12:20;99180.06;;;16.92;35.51
41947;BME280;27638;42.184;24.848;2023-03-26T19:14:53;99187.13;;;16.80;37.34
41947;BME280;27638;42.184;24.848;2023-03-26T19:17:19;99186.31;;;16.80;36.98
41947;BME280;27638;42.184;24.848;2023-03-26T19:19:45;99184.28;;;16.75;37.16
41947;BME280;27638;42.184;24.848;2023-03-26T19:22:11;99187.19;;;16.60;36.99
41947;BME280;27638;42.184;24.848;2023-03-26T19:24:37;99193.59;;;16.66;35.01
41947;BME280;27638;42.184;24.848;2023-03-26T19:27:04;99188.84;;;16.61;36.46
41947;BME280;27638;42.184;24.848;2023-03-26T19:29:33;99181.22;;;16.72;37.73
41947;BME280;27638;42.184;24.848;2023-03-26T19:32:05;99187.34;;;16.79;34.26
41947;BME280;27638;42.184;24.848;2023-03-26T19:34:39;99176.22;;;16.82;34.50
41947;BME280;27638;42.184;24.848;2023-03-26T19:37:47;99172.91;;;16.86;33.52
41947;BME280;27638;42.184;24.848;2023-03-26T19:40:22;99173.38;;;16.77;36.02
41947;BME280;27638;42.184;24.848;2023-03-26T19:42:56;99176.16;;;16.50;35.20
41947;BME280;27638;42.184;24.848;2023-03-26T19:45:22;99177.38;;;16.54;34.90
41947;BME280;27638;42.184;24.848;2023-03-26T19:47:51;99168.34;;;16.49;35.23